sensor_id;sensor_type;location;lat;lon;timestamp;P1;durP1;ratioP1;P2;durP2;ratioP2
14013;SDS011;49110;52.584;13.408;2024-03-08T00:00:52;46.87;;;43.07;;
14013;SDS011;49110;52.584;13.408;2024-03-08T00:01:52;45.43;;;41.80;;
14013;SDS011;49110;52.584;13.408;2024-03-08T00:02:53;44.37;;;40.53;;
14013;SDS011;49110;52.584;13.408;2024-03-08T00:03:54;44.50;;;40.77;;
14013;SDS011;49110;52.584;13.408;2024-03-08T00:04:54;43.30;;;39.73;;
14013;SDS011;49110;52.584;13.408;2024-03-08T00:05:55;43.87;;;40.27;;
14013;SDS011;49110;52.584;13.408;2024-03-08T00:06:56;44.70;;;40.97;;
14013;SDS011;49110;52.584;13.408;2024-03-08T00:07:56;43.40;;;39.90;;
14013;SDS011;49110;52.584;13.408;2024-03-08T00:08:57;47.10;;;43.37;;
14013;SDS011;49110;52.584;13.408;2024-03-08T00:09:57;45.67;;;42.03;;
14013;SDS011;49110;52.584;13.408;2024-03-08T00:10:58;48.93;;;45.07;;
14013;SDS011;49110;52.584;13.408;2024-03-08T00:11:59;45.57;;;41.87;;
14013;SDS011;49110;52.584;13.408;2024-03-08T00:12:59;48.73;;;44.83;;
14013;SDS011;49110;52.584;13.408;2024-03-08T00:14:00;49.77;;;45.63;;
14013;SDS011;49110;52.584;13.408;2024-03-08T00:15:01;47.33;;;43.60;;
14013;SDS011;49110;52.584;13.408;2024-03-08T00:16:02;47.83;;;43.83;;
14013;SDS011;49110;52.584;13.408;2024-03-08T00:17:02;48.30;;;44.50;;
14013;SDS011;49110;52.584;13.408;2024-03-08T00:18:03;45.60;;;42.00;;
14013;SDS011;49110;52.584;13.408;2024-03-08T00:19:04;43.07;;;39.50;;
14013;SDS011;49110;52.584;13.408;2024-03-08T00:20:05;44.17;;;40.27;;
14013;SDS011;49110;52.584;13.408;2024-03-08T00:21:08;44.55;;;40.83;;
14013;SDS011;49110;52.584;13.408;2024-03-08T00:22:08;43.37;;;39.73;;
14013;SDS011;49110;52.584;13.408;2024-03-08T00:23:11;45.63;;;42.10;;
14013;SDS011;49110;52.584;13.408;2024-03-08T00:24:12;44.70;;;41.00;;
14013;SDS011;49110;52.584;13.408;2024-03-08T00:25:12;45.57;;;41.47;;
14013;SDS011;49110;52.584;13.408;2024-03-08T00:26:13;43.83;;;40.07;;
14013;SDS011;49110;52.584;13.408;2024-03-08T00:27:14;39.50;;;36.17;;
14013;SDS011;49110;52.584;13.408;2024-03-08T00:28:15;43.05;;;39.30;;
14013;SDS011;49110;52.584;13.408;2024-03-08T00:29:17;43.08;;;39.45;;
14013;SDS011;49110;52.584;13.408;2024-03-08T00:30:17;43.73;;;40.07;;
14013;SDS011;49110;52.584;13.408;2024-03-08T00:31:18;45.57;;;41.90;;
14013;SDS011;49110;52.584;13.408;2024-03-08T00:32:18;43.13;;;39.47;;
14013;SDS011;49110;52.584;13.408;2024-03-08T00:33:19;44.30;;;40.73;;
14013;SDS011;49110;52.584;13.408;2024-03-08T00:34:19;44.27;;;40.47;;
14013;SDS011;49110;52.584;13.408;2024-03-08T00:35:20;42.67;;;39.33;;
14013;SDS011;49110;52.584;13.408;2024-03-08T00:36:20;42.57;;;38.93;;
14013;SDS011;49110;52.584;13.408;2024-03-08T00:37:21;44.87;;;41.13;;
14013;SDS011;49110;52.584;13.408;2024-03-08T00:38:22;45.07;;;41.23;;
14013;SDS011;49110;52.584;13.408;2024-03-08T00:39:22;44.83;;;41.00;;
14013;SDS011;49110;52.584;13.408;2024-03-08T00:40:23;44.97;;;41.27;;
14013;SDS011;49110;52.584;13.408;2024-03-08T00:41:23;46.03;;;42.10;;
14013;SDS011;49110;52.584;13.408;2024-03-08T00:42:26;46.67;;;42.67;;
14013;SDS011;49110;52.584;13.408;2024-03-08T00:43:27;48.13;;;44.37;;
14013;SDS011;49110;52.584;13.408;2024-03-08T00:44:28;50.10;;;46.25;;
14013;SDS011;49110;52.584;13.408;2024-03-08T00:45:29;49.03;;;44.80;;
14013;SDS011;49110;52.584;13.408;2024-03-08T00:46:29;48.23;;;44.50;;
14013;SDS011;49110;52.584;13.408;2024-03-08T00:47:31;49.83;;;45.63;;
14013;SDS011;49110;52.584;13.408;2024-03-08T00:48:32;50.43;;;46.30;;
14013;SDS011;49110;52.584;13.408;2024-03-08T00:49:32;49.57;;;45.40;;
14013;SDS011;49110;52.584;13.408;2024-03-08T00:50:33;50.70;;;46.70;;
14013;SDS011;49110;52.584;13.408;2024-03-08T00:51:33;49.17;;;45.30;;
14013;SDS011;49110;52.584;13.408;2024-03-08T00:52:34;45.57;;;41.97;;
14013;SDS011;49110;52.584;13.408;2024-03-08T00:53:35;49.57;;;45.37;;
14013;SDS011;49110;52.584;13.408;2024-03-08T00:54:36;50.33;;;46.17;;
14013;SDS011;49110;52.584;13.408;2024-03-08T00:55:36;49.53;;;45.50;;
14013;SDS011;49110;52.584;13.408;2024-03-08T00:56:37;49.90;;;45.85;;
14013;SDS011;49110;52.584;13.408;2024-03-08T00:57:39;52.47;;;48.00;;
14013;SDS011;49110;52.584;13.408;2024-03-08T00:58:40;52.10;;;47.75;;
14013;SDS011;49110;52.584;13.408;2024-03-08T00:59:41;52.20;;;48.10;;
14013;SDS011;49110;52.584;13.408;2024-03-08T01:00:41;49.43;;;45.37;;
14013;SDS011;49110;52.584;13.408;2024-03-08T01:01:42;49.10;;;45.17;;
14013;SDS011;49110;52.584;13.408;2024-03-08T01:02:44;49.55;;;45.55;;
14013;SDS011;49110;52.584;13.408;2024-03-08T01:03:44;49.40;;;45.43;;
14013;SDS011;49110;52.584;13.408;2024-03-08T01:04:45;45.47;;;41.73;;
14013;SDS011;49110;52.584;13.408;2024-03-08T01:05:47;43.72;;;40.15;;
14013;SDS011;49110;52.584;13.408;2024-03-08T01:06:47;45.50;;;41.70;;
14013;SDS011;49110;52.584;13.408;2024-03-08T01:07:48;43.93;;;40.23;;
14013;SDS011;49110;52.584;13.408;2024-03-08T01:08:49;42.47;;;38.75;;
14013;SDS011;49110;52.584;13.408;2024-03-08T01:09:51;41.05;;;37.45;;
14013;SDS011;49110;52.584;13.408;2024-03-08T01:10:52;40.20;;;36.67;;
14013;SDS011;49110;52.584;13.408;2024-03-08T01:11:53;43.33;;;39.30;;
14013;SDS011;49110;52.584;13.408;2024-03-08T01:12:57;41.53;;;37.88;;
14013;SDS011;49110;52.584;13.408;2024-03-08T01:13:59;41.17;;;37.40;;
14013;SDS011;49110;52.584;13.408;2024-03-08T01:15:00;40.20;;;36.70;;
14013;SDS011;49110;52.584;13.408;2024-03-08T01:16:01;42.50;;;38.80;;
14013;SDS011;49110;52.584;13.408;2024-03-08T01:17:01;41.40;;;37.70;;
14013;SDS011;49110;52.584;13.408;2024-03-08T01:18:02;39.40;;;35.80;;
14013;SDS011;49110;52.584;13.408;2024-03-08T01:19:02;39.63;;;36.17;;
14013;SDS011;49110;52.584;13.408;2024-03-08T01:20:04;39.88;;;36.42;;
14013;SDS011;49110;52.584;13.408;2024-03-08T01:21:05;40.92;;;37.10;;
14013;SDS011;49110;52.584;13.408;2024-03-08T01:22:06;38.67;;;35.47;;
14013;SDS011;49110;52.584;13.408;2024-03-08T01:23:07;39.83;;;36.28;;
14013;SDS011;49110;52.584;13.408;2024-03-08T01:24:08;38.13;;;34.77;;
14013;SDS011;49110;52.584;13.408;2024-03-08T01:25:08;38.07;;;34.70;;
14013;SDS011;49110;52.584;13.408;2024-03-08T01:26:09;37.83;;;34.43;;
14013;SDS011;49110;52.584;13.408;2024-03-08T01:27:09;39.40;;;36.03;;
14013;SDS011;49110;52.584;13.408;2024-03-08T01:28:10;38.30;;;34.67;;
14013;SDS011;49110;52.584;13.408;2024-03-08T01:29:10;37.23;;;33.97;;
14013;SDS011;49110;52.584;13.408;2024-03-08T01:30:11;37.87;;;34.60;;
14013;SDS011;49110;52.584;13.408;2024-03-08T01:31:12;38.42;;;35.08;;
14013;SDS011;49110;52.584;13.408;2024-03-08T01:32:13;38.42;;;34.83;;
14013;SDS011;49110;52.584;13.408;2024-03-08T01:33:14;38.75;;;35.33;;
14013;SDS011;49110;52.584;13.408;2024-03-08T01:34:15;38.67;;;35.37;;
14013;SDS011;49110;52.584;13.408;2024-03-08T01:35:16;36.17;;;32.83;;
14013;SDS011;49110;52.584;13.408;2024-03-08T01:36:16;40.07;;;36.63;;
14013;SDS011;49110;52.584;13.408;2024-03-08T01:37:19;42.53;;;38.72;;
14013;SDS011;49110;52.584;13.408;2024-03-08T01:38:20;42.83;;;39.27;;
14013;SDS011;49110;52.584;13.408;2024-03-08T01:39:22;44.08;;;40.30;;
14013;SDS011;49110;52.584;13.408;2024-03-08T01:40:22;44.87;;;41.17;;
14013;SDS011;49110;52.584;13.408;2024-03-08T01:41:23;42.17;;;38.60;;
14013;SDS011;49110;52.584;13.408;2024-03-08T01:42:23;41.03;;;37.53;;
14013;SDS011;49110;52.584;13.408;2024-03-08T01:43:27;39.70;;;36.30;;
14013;SDS011;49110;52.584;13.408;2024-03-08T01:44:28;40.85;;;37.30;;
14013;SDS011;49110;52.584;13.408;2024-03-08T01:45:30;39.92;;;36.58;;
14013;SDS011;49110;52.584;13.408;2024-03-08T01:46:34;43.13;;;39.28;;
14013;SDS011;49110;52.584;13.408;2024-03-08T01:47:35;41.08;;;37.50;;
14013;SDS011;49110;52.584;13.408;2024-03-08T01:48:36;43.88;;;40.17;;
14013;SDS011;49110;52.584;13.408;2024-03-08T01:49:37;43.13;;;39.67;;
14013;SDS011;49110;52.584;13.408;2024-03-08T01:50:38;43.67;;;40.17;;
14013;SDS011;49110;52.584;13.408;2024-03-08T01:51:39;45.25;;;41.65;;
14013;SDS011;49110;52.584;13.408;2024-03-08T01:52:41;45.97;;;42.28;;
14013;SDS011;49110;52.584;13.408;2024-03-08T01:53:42;45.25;;;41.25;;
14013;SDS011;49110;52.584;13.408;2024-03-08T01:54:45;41.08;;;37.47;;
14013;SDS011;49110;52.584;13.408;2024-03-08T01:55:47;41.27;;;37.37;;
14013;SDS011;49110;52.584;13.408;2024-03-08T01:56:49;42.83;;;38.97;;
14013;SDS011;49110;52.584;13.408;2024-03-08T01:57:50;46.07;;;42.33;;
14013;SDS011;49110;52.584;13.408;2024-03-08T01:58:51;47.87;;;43.87;;
14013;SDS011;49110;52.584;13.408;2024-03-08T01:59:51;48.87;;;44.80;;
14013;SDS011;49110;52.584;13.408;2024-03-08T02:00:54;50.60;;;46.55;;
14013;SDS011;49110;52.584;13.408;2024-03-08T02:02:00;48.80;;;44.80;;
14013;SDS011;49110;52.584;13.408;2024-03-08T02:03:03;50.03;;;45.97;;
14013;SDS011;49110;52.584;13.408;2024-03-08T02:04:04;49.10;;;45.00;;
14013;SDS011;49110;52.584;13.408;2024-03-08T02:05:07;48.88;;;44.78;;
14013;SDS011;49110;52.584;13.408;2024-03-08T02:06:08;49.22;;;45.33;;
14013;SDS011;49110;52.584;13.408;2024-03-08T02:07:10;50.85;;;46.63;;
14013;SDS011;49110;52.584;13.408;2024-03-08T02:08:10;47.13;;;43.33;;
14013;SDS011;49110;52.584;13.408;2024-03-08T02:09:14;48.28;;;44.38;;
14013;SDS011;49110;52.584;13.408;2024-03-08T02:10:14;48.07;;;44.20;;
14013;SDS011;49110;52.584;13.408;2024-03-08T02:11:15;48.33;;;44.40;;
14013;SDS011;49110;52.584;13.408;2024-03-08T02:12:16;49.70;;;45.67;;
14013;SDS011;49110;52.584;13.408;2024-03-08T02:13:16;51.33;;;46.90;;
14013;SDS011;49110;52.584;13.408;2024-03-08T02:14:17;49.93;;;45.80;;
14013;SDS011;49110;52.584;13.408;2024-03-08T02:15:18;47.70;;;43.85;;
14013;SDS011;49110;52.584;13.408;2024-03-08T02:16:20;48.57;;;44.60;;
14013;SDS011;49110;52.584;13.408;2024-03-08T02:17:21;50.25;;;46.28;;
14013;SDS011;49110;52.584;13.408;2024-03-08T02:18:22;51.33;;;47.07;;
14013;SDS011;49110;52.584;13.408;2024-03-08T02:19:23;53.88;;;49.50;;
14013;SDS011;49110;52.584;13.408;2024-03-08T02:20:23;53.70;;;49.63;;
14013;SDS011;49110;52.584;13.408;2024-03-08T02:21:24;52.97;;;48.97;;
14013;SDS011;49110;52.584;13.408;2024-03-08T02:22:25;56.20;;;51.92;;
14013;SDS011;49110;52.584;13.408;2024-03-08T02:23:26;53.93;;;49.83;;
14013;SDS011;49110;52.584;13.408;2024-03-08T02:24:26;55.33;;;51.07;;
14013;SDS011;49110;52.584;13.408;2024-03-08T02:25:27;54.10;;;49.90;;
14013;SDS011;49110;52.584;13.408;2024-03-08T02:26:28;57.30;;;52.73;;
14013;SDS011;49110;52.584;13.408;2024-03-08T02:27:29;56.30;;;51.60;;
14013;SDS011;49110;52.584;13.408;2024-03-08T02:28:29;58.13;;;53.65;;
14013;SDS011;49110;52.584;13.408;2024-03-08T02:29:30;55.73;;;51.47;;
14013;SDS011;49110;52.584;13.408;2024-03-08T02:30:34;54.55;;;50.15;;
14013;SDS011;49110;52.584;13.408;2024-03-08T02:31:34;53.13;;;48.73;;
14013;SDS011;49110;52.584;13.408;2024-03-08T02:32:35;55.20;;;50.80;;
14013;SDS011;49110;52.584;13.408;2024-03-08T02:33:35;54.17;;;49.83;;
14013;SDS011;49110;52.584;13.408;2024-03-08T02:34:36;53.53;;;49.17;;
14013;SDS011;49110;52.584;13.408;2024-03-08T02:35:36;56.17;;;51.90;;
14013;SDS011;49110;52.584;13.408;2024-03-08T02:36:37;56.30;;;51.87;;
14013;SDS011;49110;52.584;13.408;2024-03-08T02:37:38;53.70;;;49.60;;
14013;SDS011;49110;52.584;13.408;2024-03-08T02:38:38;51.13;;;47.13;;
14013;SDS011;49110;52.584;13.408;2024-03-08T02:39:40;49.88;;;45.70;;
14013;SDS011;49110;52.584;13.408;2024-03-08T02:40:41;47.77;;;44.00;;
14013;SDS011;49110;52.584;13.408;2024-03-08T02:41:43;45.70;;;42.08;;
14013;SDS011;49110;52.584;13.408;2024-03-08T02:42:43;45.63;;;41.77;;
14013;SDS011;49110;52.584;13.408;2024-03-08T02:43:44;46.70;;;42.87;;
14013;SDS011;49110;52.584;13.408;2024-03-08T02:44:45;49.03;;;45.00;;
14013;SDS011;49110;52.584;13.408;2024-03-08T02:45:46;47.10;;;43.27;;
14013;SDS011;49110;52.584;13.408;2024-03-08T02:46:46;45.33;;;41.63;;
14013;SDS011;49110;52.584;13.408;2024-03-08T02:47:47;43.50;;;39.17;;
14013;SDS011;49110;52.584;13.408;2024-03-08T02:48:50;42.33;;;38.78;;
14013;SDS011;49110;52.584;13.408;2024-03-08T02:49:54;48.30;;;44.10;;
14013;SDS011;49110;52.584;13.408;2024-03-08T02:50:55;49.63;;;45.67;;
14013;SDS011;49110;52.584;13.408;2024-03-08T02:51:55;52.57;;;48.27;;
14013;SDS011;49110;52.584;13.408;2024-03-08T02:52:57;51.70;;;47.85;;
14013;SDS011;49110;52.584;13.408;2024-03-08T02:53:57;49.30;;;45.40;;
14013;SDS011;49110;52.584;13.408;2024-03-08T02:54:58;46.20;;;42.40;;
14013;SDS011;49110;52.584;13.408;2024-03-08T02:55:58;46.83;;;42.97;;
14013;SDS011;49110;52.584;13.408;2024-03-08T02:56:59;46.40;;;42.70;;
14013;SDS011;49110;52.584;13.408;2024-03-08T02:58:00;46.77;;;42.70;;
14013;SDS011;49110;52.584;13.408;2024-03-08T02:59:00;45.70;;;41.87;;
14013;SDS011;49110;52.584;13.408;2024-03-08T03:00:01;46.07;;;42.17;;
14013;SDS011;49110;52.584;13.408;2024-03-08T03:01:01;46.97;;;43.07;;
14013;SDS011;49110;52.584;13.408;2024-03-08T03:02:03;45.28;;;41.47;;
14013;SDS011;49110;52.584;13.408;2024-03-08T03:03:03;44.23;;;40.47;;
14013;SDS011;49110;52.584;13.408;2024-03-08T03:04:04;41.20;;;37.83;;
14013;SDS011;49110;52.584;13.408;2024-03-08T03:05:05;42.33;;;38.57;;
14013;SDS011;49110;52.584;13.408;2024-03-08T03:06:06;42.92;;;39.47;;
14013;SDS011;49110;52.584;13.408;2024-03-08T03:07:07;45.60;;;41.90;;
14013;SDS011;49110;52.584;13.408;2024-03-08T03:08:07;44.77;;;41.20;;
14013;SDS011;49110;52.584;13.408;2024-03-08T03:09:08;46.50;;;42.50;;
14013;SDS011;49110;52.584;13.408;2024-03-08T03:10:10;45.63;;;41.85;;
14013;SDS011;49110;52.584;13.408;2024-03-08T03:11:12;49.33;;;45.42;;
14013;SDS011;49110;52.584;13.408;2024-03-08T03:12:13;46.70;;;42.95;;
14013;SDS011;49110;52.584;13.408;2024-03-08T03:13:14;45.50;;;41.73;;
14013;SDS011;49110;52.584;13.408;2024-03-08T03:14:14;42.07;;;38.67;;
14013;SDS011;49110;52.584;13.408;2024-03-08T03:15:16;44.35;;;40.65;;
14013;SDS011;49110;52.584;13.408;2024-03-08T03:16:18;45.22;;;41.50;;
14013;SDS011;49110;52.584;13.408;2024-03-08T03:17:23;43.05;;;39.33;;
14013;SDS011;49110;52.584;13.408;2024-03-08T03:18:24;44.72;;;40.97;;
14013;SDS011;49110;52.584;13.408;2024-03-08T03:19:26;47.35;;;43.35;;
14013;SDS011;49110;52.584;13.408;2024-03-08T03:20:27;48.85;;;45.00;;
14013;SDS011;49110;52.584;13.408;2024-03-08T03:21:32;48.05;;;44.05;;
14013;SDS011;49110;52.584;13.408;2024-03-08T03:22:38;48.72;;;44.58;;
14013;SDS011;49110;52.584;13.408;2024-03-08T03:23:40;50.63;;;46.53;;
14013;SDS011;49110;52.584;13.408;2024-03-08T03:24:44;51.28;;;47.13;;
14013;SDS011;49110;52.584;13.408;2024-03-08T03:25:46;42.72;;;39.15;;
14013;SDS011;49110;52.584;13.408;2024-03-08T03:26:46;45.70;;;41.80;;
14013;SDS011;49110;52.584;13.408;2024-03-08T03:27:49;45.60;;;41.80;;
14013;SDS011;49110;52.584;13.408;2024-03-08T03:28:49;47.72;;;43.83;;
14013;SDS011;49110;52.584;13.408;2024-03-08T03:29:50;45.20;;;41.47;;
14013;SDS011;49110;52.584;13.408;2024-03-08T03:30:52;42.47;;;38.70;;
14013;SDS011;49110;52.584;13.408;2024-03-08T03:31:52;42.80;;;39.13;;
14013;SDS011;49110;52.584;13.408;2024-03-08T03:32:53;47.10;;;43.10;;
14013;SDS011;49110;52.584;13.408;2024-03-08T03:34:00;45.25;;;41.17;;
14013;SDS011;49110;52.584;13.408;2024-03-08T03:35:04;47.60;;;43.67;;
14013;SDS011;49110;52.584;13.408;2024-03-08T03:36:05;49.55;;;45.22;;
14013;SDS011;49110;52.584;13.408;2024-03-08T03:37:08;51.42;;;47.22;;
14013;SDS011;49110;52.584;13.408;2024-03-08T03:38:12;51.03;;;46.88;;
14013;SDS011;49110;52.584;13.408;2024-03-08T03:39:14;51.47;;;47.15;;
14013;SDS011;49110;52.584;13.408;2024-03-08T03:40:16;50.35;;;46.30;;
14013;SDS011;49110;52.584;13.408;2024-03-08T03:41:18;48.03;;;43.83;;
14013;SDS011;49110;52.584;13.408;2024-03-08T03:42:19;47.90;;;43.70;;
14013;SDS011;49110;52.584;13.408;2024-03-08T03:43:20;49.13;;;44.87;;
14013;SDS011;49110;52.584;13.408;2024-03-08T03:44:20;49.33;;;45.20;;
14013;SDS011;49110;52.584;13.408;2024-03-08T03:45:23;51.17;;;46.97;;
14013;SDS011;49110;52.584;13.408;2024-03-08T03:46:24;46.83;;;42.88;;
14013;SDS011;49110;52.584;13.408;2024-03-08T03:47:27;46.42;;;42.58;;
14013;SDS011;49110;52.584;13.408;2024-03-08T03:48:27;49.10;;;45.10;;
14013;SDS011;49110;52.584;13.408;2024-03-08T03:49:28;47.30;;;43.30;;
14013;SDS011;49110;52.584;13.408;2024-03-08T03:50:29;47.23;;;43.03;;
14013;SDS011;49110;52.584;13.408;2024-03-08T03:51:29;49.10;;;44.93;;
14013;SDS011;49110;52.584;13.408;2024-03-08T03:52:30;47.77;;;43.73;;
14013;SDS011;49110;52.584;13.408;2024-03-08T03:53:31;47.65;;;43.55;;
14013;SDS011;49110;52.584;13.408;2024-03-08T03:54:31;48.57;;;44.47;;
14013;SDS011;49110;52.584;13.408;2024-03-08T03:55:33;46.97;;;43.03;;
14013;SDS011;49110;52.584;13.408;2024-03-08T03:56:34;48.63;;;44.40;;
14013;SDS011;49110;52.584;13.408;2024-03-08T03:57:35;49.20;;;45.17;;
14013;SDS011;49110;52.584;13.408;2024-03-08T03:58:35;50.10;;;45.93;;
14013;SDS011;49110;52.584;13.408;2024-03-08T03:59:36;47.27;;;43.40;;
14013;SDS011;49110;52.584;13.408;2024-03-08T04:00:36;47.87;;;43.90;;
14013;SDS011;49110;52.584;13.408;2024-03-08T04:01:41;46.57;;;42.70;;
14013;SDS011;49110;52.584;13.408;2024-03-08T04:02:42;43.88;;;40.10;;
14013;SDS011;49110;52.584;13.408;2024-03-08T04:03:42;43.83;;;40.23;;
14013;SDS011;49110;52.584;13.408;2024-03-08T04:04:43;43.13;;;39.40;;
14013;SDS011;49110;52.584;13.408;2024-03-08T04:05:46;42.78;;;39.10;;
14013;SDS011;49110;52.584;13.408;2024-03-08T04:06:46;46.28;;;42.47;;
14013;SDS011;49110;52.584;13.408;2024-03-08T04:07:47;48.80;;;44.70;;
14013;SDS011;49110;52.584;13.408;2024-03-08T04:08:48;48.17;;;44.17;;
14013;SDS011;49110;52.584;13.408;2024-03-08T04:09:48;46.80;;;42.57;;
14013;SDS011;49110;52.584;13.408;2024-03-08T04:10:50;47.00;;;43.17;;
14013;SDS011;49110;52.584;13.408;2024-03-08T04:11:51;47.50;;;43.53;;
14013;SDS011;49110;52.584;13.408;2024-03-08T04:12:53;47.40;;;43.55;;
14013;SDS011;49110;52.584;13.408;2024-03-08T04:13:53;47.43;;;43.47;;
14013;SDS011;49110;52.584;13.408;2024-03-08T04:14:54;48.83;;;44.85;;
14013;SDS011;49110;52.584;13.408;2024-03-08T04:15:55;48.03;;;44.13;;
14013;SDS011;49110;52.584;13.408;2024-03-08T04:16:56;50.20;;;46.00;;
14013;SDS011;49110;52.584;13.408;2024-03-08T04:17:56;46.23;;;42.37;;
14013;SDS011;49110;52.584;13.408;2024-03-08T04:18:57;47.30;;;43.20;;
14013;SDS011;49110;52.584;13.408;2024-03-08T04:19:58;44.78;;;41.13;;
14013;SDS011;49110;52.584;13.408;2024-03-08T04:20:58;47.73;;;43.77;;
14013;SDS011;49110;52.584;13.408;2024-03-08T04:21:59;45.33;;;41.53;;
14013;SDS011;49110;52.584;13.408;2024-03-08T04:23:01;45.05;;;41.20;;
14013;SDS011;49110;52.584;13.408;2024-03-08T04:24:02;46.10;;;42.20;;
14013;SDS011;49110;52.584;13.408;2024-03-08T04:25:03;46.53;;;42.63;;
14013;SDS011;49110;52.584;13.408;2024-03-08T04:26:03;43.78;;;39.97;;
14013;SDS011;49110;52.584;13.408;2024-03-08T04:27:06;45.05;;;41.33;;
14013;SDS011;49110;52.584;13.408;2024-03-08T04:28:06;45.33;;;41.25;;
14013;SDS011;49110;52.584;13.408;2024-03-08T04:29:07;44.63;;;40.93;;
14013;SDS011;49110;52.584;13.408;2024-03-08T04:30:08;43.53;;;39.93;;
14013;SDS011;49110;52.584;13.408;2024-03-08T04:31:09;46.05;;;42.25;;
14013;SDS011;49110;52.584;13.408;2024-03-08T04:32:10;46.03;;;42.25;;
14013;SDS011;49110;52.584;13.408;2024-03-08T04:33:13;44.42;;;40.83;;
14013;SDS011;49110;52.584;13.408;2024-03-08T04:34:16;44.08;;;40.58;;
14013;SDS011;49110;52.584;13.408;2024-03-08T04:35:17;45.60;;;41.90;;
14013;SDS011;49110;52.584;13.408;2024-03-08T04:36:17;45.47;;;41.63;;
14013;SDS011;49110;52.584;13.408;2024-03-08T04:37:18;43.33;;;39.87;;
14013;SDS011;49110;52.584;13.408;2024-03-08T04:38:21;43.38;;;39.67;;
14013;SDS011;49110;52.584;13.408;2024-03-08T04:39:22;44.77;;;41.07;;
14013;SDS011;49110;52.584;13.408;2024-03-08T04:40:23;44.80;;;41.00;;
14013;SDS011;49110;52.584;13.408;2024-03-08T04:41:23;43.90;;;40.27;;
14013;SDS011;49110;52.584;13.408;2024-03-08T04:42:24;44.40;;;40.73;;
14013;SDS011;49110;52.584;13.408;2024-03-08T04:43:26;43.67;;;39.88;;
14013;SDS011;49110;52.584;13.408;2024-03-08T04:44:30;41.90;;;38.42;;
14013;SDS011;49110;52.584;13.408;2024-03-08T04:45:31;46.17;;;42.08;;
14013;SDS011;49110;52.584;13.408;2024-03-08T04:46:32;44.83;;;40.87;;
14013;SDS011;49110;52.584;13.408;2024-03-08T04:47:32;46.27;;;42.17;;
14013;SDS011;49110;52.584;13.408;2024-03-08T04:48:33;45.30;;;41.30;;
14013;SDS011;49110;52.584;13.408;2024-03-08T04:49:33;44.83;;;40.93;;
14013;SDS011;49110;52.584;13.408;2024-03-08T04:50:34;45.20;;;41.23;;
14013;SDS011;49110;52.584;13.408;2024-03-08T04:51:35;49.13;;;45.03;;
14013;SDS011;49110;52.584;13.408;2024-03-08T04:52:35;47.40;;;43.50;;
14013;SDS011;49110;52.584;13.408;2024-03-08T04:53:36;49.90;;;45.47;;
14013;SDS011;49110;52.584;13.408;2024-03-08T04:54:36;47.80;;;43.60;;
14013;SDS011;49110;52.584;13.408;2024-03-08T04:55:37;48.23;;;44.13;;
14013;SDS011;49110;52.584;13.408;2024-03-08T04:56:37;49.27;;;45.17;;
14013;SDS011;49110;52.584;13.408;2024-03-08T04:57:39;48.33;;;44.22;;
14013;SDS011;49110;52.584;13.408;2024-03-08T04:58:39;45.83;;;41.87;;
14013;SDS011;49110;52.584;13.408;2024-03-08T04:59:40;46.47;;;42.67;;
14013;SDS011;49110;52.584;13.408;2024-03-08T05:00:40;46.87;;;43.07;;
14013;SDS011;49110;52.584;13.408;2024-03-08T05:01:41;46.90;;;42.87;;
14013;SDS011;49110;52.584;13.408;2024-03-08T05:02:41;47.40;;;43.20;;
14013;SDS011;49110;52.584;13.408;2024-03-08T05:03:42;46.10;;;42.23;;
14013;SDS011;49110;52.584;13.408;2024-03-08T05:04:42;47.43;;;43.50;;
14013;SDS011;49110;52.584;13.408;2024-03-08T05:05:43;45.73;;;41.93;;
14013;SDS011;49110;52.584;13.408;2024-03-08T05:06:43;46.40;;;42.53;;
14013;SDS011;49110;52.584;13.408;2024-03-08T05:07:44;45.53;;;41.60;;
14013;SDS011;49110;52.584;13.408;2024-03-08T05:08:45;46.42;;;42.58;;
14013;SDS011;49110;52.584;13.408;2024-03-08T05:09:46;44.97;;;41.27;;
14013;SDS011;49110;52.584;13.408;2024-03-08T05:10:51;45.03;;;41.10;;
14013;SDS011;49110;52.584;13.408;2024-03-08T05:11:51;44.93;;;40.93;;
14013;SDS011;49110;52.584;13.408;2024-03-08T05:12:52;48.20;;;44.00;;
14013;SDS011;49110;52.584;13.408;2024-03-08T05:13:53;46.67;;;42.60;;
14013;SDS011;49110;52.584;13.408;2024-03-08T05:14:53;47.00;;;43.03;;
14013;SDS011;49110;52.584;13.408;2024-03-08T05:15:54;45.42;;;41.63;;
14013;SDS011;49110;52.584;13.408;2024-03-08T05:16:58;44.55;;;40.72;;
14013;SDS011;49110;52.584;13.408;2024-03-08T05:17:58;46.27;;;42.20;;
14013;SDS011;49110;52.584;13.408;2024-03-08T05:18:59;45.90;;;42.03;;
14013;SDS011;49110;52.584;13.408;2024-03-08T05:20:00;44.93;;;41.13;;
14013;SDS011;49110;52.584;13.408;2024-03-08T05:21:00;47.33;;;43.37;;
14013;SDS011;49110;52.584;13.408;2024-03-08T05:22:03;46.80;;;42.70;;
14013;SDS011;49110;52.584;13.408;2024-03-08T05:23:04;47.53;;;43.53;;
14013;SDS011;49110;52.584;13.408;2024-03-08T05:24:05;47.13;;;43.23;;
14013;SDS011;49110;52.584;13.408;2024-03-08T05:25:06;47.93;;;43.90;;
14013;SDS011;49110;52.584;13.408;2024-03-08T05:26:08;49.83;;;45.65;;
14013;SDS011;49110;52.584;13.408;2024-03-08T05:27:08;48.83;;;44.37;;
14013;SDS011;49110;52.584;13.408;2024-03-08T05:28:09;49.93;;;45.60;;
14013;SDS011;49110;52.584;13.408;2024-03-08T05:29:09;48.93;;;44.67;;
14013;SDS011;49110;52.584;13.408;2024-03-08T05:30:10;47.37;;;43.20;;
14013;SDS011;49110;52.584;13.408;2024-03-08T05:31:20;48.35;;;44.13;;
14013;SDS011;49110;52.584;13.408;2024-03-08T05:32:24;45.88;;;41.88;;
14013;SDS011;49110;52.584;13.408;2024-03-08T05:33:24;49.07;;;44.87;;
14013;SDS011;49110;52.584;13.408;2024-03-08T05:34:25;50.63;;;46.37;;
14013;SDS011;49110;52.584;13.408;2024-03-08T05:35:28;50.60;;;46.30;;
14013;SDS011;49110;52.584;13.408;2024-03-08T05:36:29;48.30;;;44.40;;
14013;SDS011;49110;52.584;13.408;2024-03-08T05:37:30;50.40;;;46.08;;
14013;SDS011;49110;52.584;13.408;2024-03-08T05:38:31;48.33;;;44.15;;
14013;SDS011;49110;52.584;13.408;2024-03-08T05:39:31;46.30;;;42.27;;
14013;SDS011;49110;52.584;13.408;2024-03-08T05:40:32;47.33;;;43.17;;
14013;SDS011;49110;52.584;13.408;2024-03-08T05:41:33;46.80;;;42.80;;
14013;SDS011;49110;52.584;13.408;2024-03-08T05:42:34;46.85;;;42.65;;
14013;SDS011;49110;52.584;13.408;2024-03-08T05:43:36;45.20;;;41.30;;
14013;SDS011;49110;52.584;13.408;2024-03-08T05:44:37;45.37;;;41.20;;
14013;SDS011;49110;52.584;13.408;2024-03-08T05:45:37;46.60;;;42.50;;
14013;SDS011;49110;52.584;13.408;2024-03-08T05:46:38;45.60;;;41.67;;
14013;SDS011;49110;52.584;13.408;2024-03-08T05:47:39;48.47;;;44.08;;
14013;SDS011;49110;52.584;13.408;2024-03-08T05:48:40;47.10;;;43.03;;
14013;SDS011;49110;52.584;13.408;2024-03-08T05:49:44;46.17;;;41.83;;
14013;SDS011;49110;52.584;13.408;2024-03-08T05:50:52;44.45;;;40.45;;
14013;SDS011;49110;52.584;13.408;2024-03-08T05:51:53;47.03;;;42.90;;
14013;SDS011;49110;52.584;13.408;2024-03-08T05:52:57;47.47;;;43.25;;